sensor_id;sensor_type;location;lat;lon;timestamp;pressure;altitude;pressure_sealevel;temperature;humidity
38718;BME280;24468;52.128;9.278;2023-11-18T00:00:24;101532.38;;;7.30;100.00
38718;BME280;24468;52.128;9.278;2023-11-18T00:02:50;101526.03;;;7.34;100.00
38718;BME280;24468;52.128;9.278;2023-11-18T00:05:16;101530.50;;;7.35;100.00
38718;BME280;24468;52.128;9.278;2023-11-18T00:07:42;101532.16;;;7.42;100.00
38718;BME280;24468;52.128;9.278;2023-11-18T00:10:08;101529.44;;;7.45;100.00
38718;BME280;24468;52.128;9.278;2023-11-18T00:12:37;101527.63;;;7.49;100.00
38718;BME280;24468;52.128;9.278;2023-11-18T00:15:07;101528.50;;;7.48;100.00
38718;BME280;24468;52.128;9.278;2023-11-18T00:17:37;101529.56;;;7.38;100.00
38718;BME280;24468;52.128;9.278;2023-11-18T00:20:04;101530.53;;;7.33;100.00
38718;BME280;24468;52.128;9.278;2023-11-18T00:22:38;101532.22;;;7.39;100.00
38718;BME280;24468;52.128;9.278;2023-11-18T00:25:04;101530.47;;;7.38;100.00
38718;BME280;24468;52.128;9.278;2023-11-18T00:27:36;101532.38;;;7.28;100.00
38718;BME280;24468;52.128;9.278;2023-11-18T00:30:04;101533.31;;;7.26;100.00
38718;BME280;24468;52.128;9.278;2023-11-18T00:32:39;101534.25;;;7.23;100.00
38718;BME280;24468;52.128;9.278;2023-11-18T00:35:05;101535.84;;;7.37;100.00
38718;BME280;24468;52.128;9.278;2023-11-18T00:37:32;101545.69;;;7.36;100.00
38718;BME280;24468;52.128;9.278;2023-11-18T00:39:58;101538.69;;;7.26;100.00
38718;BME280;24468;52.128;9.278;2023-11-18T00:42:24;101543.28;;;7.18;100.00
38718;BME280;24468;52.128;9.278;2023-11-18T00:44:50;101544.72;;;6.78;100.00
38718;BME280;24468;52.128;9.278;2023-11-18T00:47:15;101547.47;;;6.71;100.00
38718;BME280;24468;52.128;9.278;2023-11-18T00:49:41;101548.31;;;6.76;100.00
38718;BME280;24468;52.128;9.278;2023-11-18T00:52:06;101561.84;;;6.66;100.00
38718;BME280;24468;52.128;9.278;2023-11-18T00:54:32;101563.13;;;7.06;100.00
38718;BME280;24468;52.128;9.278;2023-11-18T00:56:57;101553.06;;;7.22;100.00
38718;BME280;24468;52.128;9.278;2023-11-18T00:59:23;101564.06;;;7.02;100.00
38718;BME280;24468;52.128;9.278;2023-11-18T01:01:49;101559.47;;;7.11;100.00
38718;BME280;24468;52.128;9.278;2023-11-18T01:04:14;101563.09;;;7.07;100.00
38718;BME280;24468;52.128;9.278;2023-11-18T01:06:42;101559.47;;;7.13;100.00
38718;BME280;24468;52.128;9.278;2023-11-18T01:09:08;101564.00;;;7.08;100.00
38718;BME280;24468;52.128;9.278;2023-11-18T01:11:35;101555.88;;;7.12;100.00
38718;BME280;24468;52.128;9.278;2023-11-18T01:14:02;101574.47;;;7.26;100.00
38718;BME280;24468;52.128;9.278;2023-11-18T01:16:28;101565.50;;;7.27;100.00
38718;BME280;24468;52.128;9.278;2023-11-18T01:18:54;101570.69;;;7.40;100.00
38718;BME280;24468;52.128;9.278;2023-11-18T01:21:20;101584.34;;;7.23;100.00
38718;BME280;24468;52.128;9.278;2023-11-18T01:23:45;101587.22;;;7.09;100.00
38718;BME280;24468;52.128;9.278;2023-11-18T01:26:11;101590.66;;;7.20;100.00
38718;BME280;24468;52.128;9.278;2023-11-18T01:28:38;101590.50;;;7.29;100.00
38718;BME280;24468;52.128;9.278;2023-11-18T01:31:07;101584.16;;;7.38;100.00
38718;BME280;24468;52.128;9.278;2023-11-18T01:33:38;101586.78;;;7.40;100.00
38718;BME280;24468;52.128;9.278;2023-11-18T01:36:06;101583.31;;;7.33;100.00
38718;BME280;24468;52.128;9.278;2023-11-18T01:38:37;101589.03;;;7.07;100.00
38718;BME280;24468;52.128;9.278;2023-11-18T01:41:05;101600.88;;;6.92;100.00
38718;BME280;24468;52.128;9.278;2023-11-18T01:43:31;101598.94;;;7.03;100.00
38718;BME280;24468;52.128;9.278;2023-11-18T01:46:05;101597.88;;;7.17;100.00
38718;BME280;24468;52.128;9.278;2023-11-18T01:48:36;101600.56;;;7.17;100.00
38718;BME280;24468;52.128;9.278;2023-11-18T01:51:05;101600.50;;;7.18;100.00
38718;BME280;24468;52.128;9.278;2023-11-18T01:53:31;101605.97;;;7.13;100.00
38718;BME280;24468;52.128;9.278;2023-11-18T01:55:58;101590.69;;;7.17;100.00
38718;BME280;24468;52.128;9.278;2023-11-18T01:58:24;101590.69;;;7.17;100.00
38718;BME280;24468;52.128;9.278;2023-11-18T02:00:51;101586.22;;;7.19;100.00
38718;BME280;24468;52.128;9.278;2023-11-18T02:03:17;101581.69;;;7.21;100.00
38718;BME280;24468;52.128;9.278;2023-11-18T02:05:43;101591.66;;;7.11;100.00
38718;BME280;24468;52.128;9.278;2023-11-18T02:08:10;101590.88;;;7.05;100.00
38718;BME280;24468;52.128;9.278;2023-11-18T02:10:48;101589.97;;;7.04;100.00
38718;BME280;24468;52.128;9.278;2023-11-18T02:13:24;101600.81;;;6.95;100.00
38718;BME280;24468;52.128;9.278;2023-11-18T02:15:54;101592.72;;;6.98;100.00
38718;BME280;24468;52.128;9.278;2023-11-18T02:18:27;101595.34;;;7.04;100.00
38718;BME280;24468;52.128;9.278;2023-11-18T02:20:55;101598.97;;;7.00;100.00
38718;BME280;24468;52.128;9.278;2023-11-18T02:23:27;101600.78;;;6.98;100.00
38718;BME280;24468;52.128;9.278;2023-11-18T02:25:53;101611.59;;;6.90;100.00
38718;BME280;24468;52.128;9.278;2023-11-18T02:28:19;101604.31;;;7.02;100.00
38718;BME280;24468;52.128;9.278;2023-11-18T02:30:48;101604.59;;;6.79;100.00
38718;BME280;24468;52.128;9.278;2023-11-18T02:33:25;101600.91;;;6.87;100.00
38718;BME280;24468;52.128;9.278;2023-11-18T02:36:04;101594.44;;;7.04;100.00
38718;BME280;24468;52.128;9.278;2023-11-18T02:38:35;101601.72;;;6.96;100.00
38718;BME280;24468;52.128;9.278;2023-11-18T02:41:10;101596.47;;;6.85;100.00
38718;BME280;24468;52.128;9.278;2023-11-18T02:43:39;101605.53;;;6.76;100.00
38718;BME280;24468;52.128;9.278;2023-11-18T02:46:07;101610.84;;;6.81;100.00
38718;BME280;24468;52.128;9.278;2023-11-18T02:48:34;101601.03;;;6.77;100.00
38718;BME280;24468;52.128;9.278;2023-11-18T02:51:01;101607.44;;;6.66;100.00
38718;BME280;24468;52.128;9.278;2023-11-18T02:53:27;101604.69;;;6.73;100.00
38718;BME280;24468;52.128;9.278;2023-11-18T02:55:52;101606.47;;;6.72;100.00
38718;BME280;24468;52.128;9.278;2023-11-18T02:58:19;101605.53;;;6.76;100.00
38718;BME280;24468;52.128;9.278;2023-11-18T03:00:46;101604.59;;;6.80;100.00
38718;BME280;24468;52.128;9.278;2023-11-18T03:03:11;101605.44;;;6.84;100.00
38718;BME280;24468;52.128;9.278;2023-11-18T03:05:37;101601.75;;;6.91;100.00
38718;BME280;24468;52.128;9.278;2023-11-18T03:08:04;101604.56;;;6.83;100.00
38718;BME280;24468;52.128;9.278;2023-11-18T03:10:32;101592.91;;;6.84;100.00
38718;BME280;24468;52.128;9.278;2023-11-18T03:13:00;101581.31;;;6.82;100.00
38718;BME280;24468;52.128;9.278;2023-11-18T03:15:26;101582.34;;;6.71;100.00
38718;BME280;24468;52.128;9.278;2023-11-18T03:17:53;101581.47;;;6.70;100.00
38718;BME280;24468;52.128;9.278;2023-11-18T03:20:22;101587.66;;;6.74;100.00
38718;BME280;24468;52.128;9.278;2023-11-18T03:22:49;101592.16;;;6.75;100.00
38718;BME280;24468;52.128;9.278;2023-11-18T03:25:16;101601.03;;;6.77;100.00
38718;BME280;24468;52.128;9.278;2023-11-18T03:27:43;101606.44;;;6.74;100.00
38718;BME280;24468;52.128;9.278;2023-11-18T03:30:12;101611.81;;;6.74;100.00
38718;BME280;24468;52.128;9.278;2023-11-18T03:32:39;101599.28;;;6.74;100.00
38718;BME280;24468;52.128;9.278;2023-11-18T03:35:07;101602.84;;;6.76;100.00
38718;BME280;24468;52.128;9.278;2023-11-18T03:37:41;101599.25;;;6.79;100.00
38718;BME280;24468;52.128;9.278;2023-11-18T03:40:12;101603.91;;;6.60;100.00
38718;BME280;24468;52.128;9.278;2023-11-18T03:42:39;101598.50;;;6.64;100.00
38718;BME280;24468;52.128;9.278;2023-11-18T03:45:06;101602.09;;;6.63;100.00
38718;BME280;24468;52.128;9.278;2023-11-18T03:47:31;101605.75;;;6.55;100.00
38718;BME280;24468;52.128;9.278;2023-11-18T03:49:57;101602.31;;;6.43;100.00
38718;BME280;24468;52.128;9.278;2023-11-18T03:52:24;101596.00;;;6.51;100.00
38718;BME280;24468;52.128;9.278;2023-11-18T03:54:49;101598.72;;;6.48;100.00
38718;BME280;24468;52.128;9.278;2023-11-18T03:57:15;101605.75;;;6.55;100.00
38718;BME280;24468;52.128;9.278;2023-11-18T03:59:40;101598.66;;;6.51;100.00
38718;BME280;24468;52.128;9.278;2023-11-18T04:02:07;101599.75;;;6.31;100.00
38718;BME280;24468;52.128;9.278;2023-11-18T04:04:33;101604.50;;;6.00;100.00
38718;BME280;24468;52.128;9.278;2023-11-18T04:06:58;101591.97;;;6.05;100.00
38718;BME280;24468;52.128;9.278;2023-11-18T04:09:27;101592.72;;;6.21;100.00
38718;BME280;24468;52.128;9.278;2023-11-18T04:11:52;101592.63;;;6.27;100.00
38718;BME280;24468;52.128;9.278;2023-11-18T04:14:18;101579.22;;;6.32;100.00
38718;BME280;24468;52.128;9.278;2023-11-18T04:16:48;101586.81;;;5.79;100.00
38718;BME280;24468;52.128;9.278;2023-11-18T04:19:14;101587.47;;;6.07;100.00
38718;BME280;24468;52.128;9.278;2023-11-18T04:21:40;101585.72;;;6.03;100.00
38718;BME280;24468;52.128;9.278;2023-11-18T04:24:06;101590.16;;;6.07;100.00
38718;BME280;24468;52.128;9.278;2023-11-18T04:26:32;101584.91;;;5.95;100.00
38718;BME280;24468;52.128;9.278;2023-11-18T04:28:58;101583.91;;;6.05;100.00
38718;BME280;24468;52.128;9.278;2023-11-18T04:31:24;101581.19;;;6.14;100.00
38718;BME280;24468;52.128;9.278;2023-11-18T04:33:50;101585.63;;;6.15;100.00
38718;BME280;24468;52.128;9.278;2023-11-18T04:36:16;101587.34;;;6.19;100.00
38718;BME280;24468;52.128;9.278;2023-11-18T04:38:42;101584.69;;;6.16;100.00
38718;BME280;24468;52.128;9.278;2023-11-18T04:41:09;101573.13;;;6.13;100.00
38718;BME280;24468;52.128;9.278;2023-11-18T04:43:35;101571.31;;;6.18;100.00
38718;BME280;24468;52.128;9.278;2023-11-18T04:46:00;101571.38;;;6.10;100.00
38718;BME280;24468;52.128;9.278;2023-11-18T04:48:26;101570.47;;;6.11;100.00
38718;BME280;24468;52.128;9.278;2023-11-18T04:50:51;101561.53;;;6.11;100.00
38718;BME280;24468;52.128;9.278;2023-11-18T04:53:17;101565.13;;;6.08;100.00
38718;BME280;24468;52.128;9.278;2023-11-18T04:55:43;101565.19;;;6.02;100.00
38718;BME280;24468;52.128;9.278;2023-11-18T04:58:08;101565.22;;;5.99;100.00
38718;BME280;24468;52.128;9.278;2023-11-18T05:00:36;101566.16;;;5.96;100.00
38718;BME280;24468;52.128;9.278;2023-11-18T05:03:04;101575.06;;;5.97;100.00
38718;BME280;24468;52.128;9.278;2023-11-18T05:05:30;101567.97;;;5.87;100.00
38718;BME280;24468;52.128;9.278;2023-11-18T05:07:55;101570.66;;;5.90;100.00
38718;BME280;24468;52.128;9.278;2023-11-18T05:10:21;101565.31;;;5.84;100.00
38718;BME280;24468;52.128;9.278;2023-11-18T05:12:47;101575.16;;;5.85;100.00
38718;BME280;24468;52.128;9.278;2023-11-18T05:15:21;101558.16;;;5.86;100.00
38718;BME280;24468;52.128;9.278;2023-11-18T05:17:52;101559.97;;;5.85;100.00
38718;BME280;24468;52.128;9.278;2023-11-18T05:20:19;101556.44;;;5.82;100.00
38718;BME280;24468;52.128;9.278;2023-11-18T05:22:45;101553.75;;;5.82;100.00
38718;BME280;24468;52.128;9.278;2023-11-18T05:25:11;101542.19;;;5.75;100.00
38718;BME280;24468;52.128;9.278;2023-11-18T05:27:37;101543.13;;;5.71;100.00
38718;BME280;24468;52.128;9.278;2023-11-18T05:30:09;101539.59;;;5.64;100.00
38718;BME280;24468;52.128;9.278;2023-11-18T05:32:35;101539.63;;;5.63;100.00
38718;BME280;24468;52.128;9.278;2023-11-18T05:35:01;101531.63;;;5.58;100.00
38718;BME280;24468;52.128;9.278;2023-11-18T05:37:27;101533.47;;;5.51;100.00
38718;BME280;24468;52.128;9.278;2023-11-18T05:40:00;101542.44;;;5.46;100.00
38718;BME280;24468;52.128;9.278;2023-11-18T05:42:31;101533.69;;;5.24;100.00
38718;BME280;24468;52.128;9.278;2023-11-18T05:44:57;101530.94;;;5.28;100.00
38718;BME280;24468;52.128;9.278;2023-11-18T05:47:26;101534.47;;;5.32;100.00
38718;BME280;24468;52.128;9.278;2023-11-18T05:49:53;101531.00;;;5.21;100.00
38718;BME280;24468;52.128;9.278;2023-11-18T05:52:19;101530.06;;;5.26;100.00
38718;BME280;24468;52.128;9.278;2023-11-18T05:54:46;101529.16;;;5.29;100.00
38718;BME280;24468;52.128;9.278;2023-11-18T05:57:16;101522.09;;;5.22;100.00
38718;BME280;24468;52.128;9.278;2023-11-18T05:59:42;101519.47;;;5.14;100.00
38718;BME280;24468;52.128;9.278;2023-11-18T06:02:08;101514.16;;;5.03;100.00
38718;BME280;24468;52.128;9.278;2023-11-18T06:04:34;101515.06;;;5.01;100.00
38718;BME280;24468;52.128;9.278;2023-11-18T06:07:00;101506.13;;;5.08;100.00
38718;BME280;24468;52.128;9.278;2023-11-18T06:09:28;101506.22;;;4.89;100.00
38718;BME280;24468;52.128;9.278;2023-11-18T06:11:54;101520.47;;;4.93;100.00
38718;BME280;24468;52.128;9.278;2023-11-18T06:14:20;101516.88;;;4.99;100.00
38718;BME280;24468;52.128;9.278;2023-11-18T06:16:47;101524.88;;;5.02;100.00
38718;BME280;24468;52.128;9.278;2023-11-18T06:19:13;101521.25;;;5.12;100.00
38718;BME280;24468;52.128;9.278;2023-11-18T06:21:40;101523.91;;;5.17;100.00
38718;BME280;24468;52.128;9.278;2023-11-18T06:24:06;101532.84;;;5.11;100.00
38718;BME280;24468;52.128;9.278;2023-11-18T06:26:32;101542.75;;;4.97;100.00
38718;BME280;24468;52.128;9.278;2023-11-18T06:29:01;101549.84;;;4.96;100.00
38718;BME280;24468;52.128;9.278;2023-11-18T06:31:27;101543.59;;;4.99;100.00
38718;BME280;24468;52.128;9.278;2023-11-18T06:33:54;101542.72;;;5.00;100.00
38718;BME280;24468;52.128;9.278;2023-11-18T06:36:21;101537.41;;;4.92;100.00
38718;BME280;24468;52.128;9.278;2023-11-18T06:38:52;101532.00;;;5.03;100.00
38718;BME280;24468;52.128;9.278;2023-11-18T06:41:21;101534.66;;;5.07;100.00
38718;BME280;24468;52.128;9.278;2023-11-18T06:43:49;101545.41;;;4.98;100.00
38718;BME280;24468;52.128;9.278;2023-11-18T06:46:14;101551.63;;;5.03;100.00
38718;BME280;24468;52.128;9.278;2023-11-18T06:48:40;101559.59;;;5.11;100.00
38718;BME280;24468;52.128;9.278;2023-11-18T06:51:06;101554.22;;;5.19;100.00
38718;BME280;24468;52.128;9.278;2023-11-18T06:53:34;101558.59;;;5.26;100.00
38718;BME280;24468;52.128;9.278;2023-11-18T06:56:00;101556.78;;;5.34;100.00
38718;BME280;24468;52.128;9.278;2023-11-18T06:58:25;101548.78;;;5.32;100.00
38718;BME280;24468;52.128;9.278;2023-11-18T07:00:52;101553.16;;;5.46;100.00
38718;BME280;24468;52.128;9.278;2023-11-18T07:03:18;101563.81;;;5.50;100.00
38718;BME280;24468;52.128;9.278;2023-11-18T07:05:43;101572.66;;;5.58;100.00
38718;BME280;24468;52.128;9.278;2023-11-18T07:08:09;101563.84;;;5.44;100.00
38718;BME280;24468;52.128;9.278;2023-11-18T07:10:38;101554.22;;;5.19;100.00
38718;BME280;24468;52.128;9.278;2023-11-18T07:13:03;101554.97;;;5.41;100.00
38718;BME280;24468;52.128;9.278;2023-11-18T07:15:29;101544.16;;;5.54;100.00
38718;BME280;24468;52.128;9.278;2023-11-18T07:17:54;101534.19;;;5.70;100.00
38718;BME280;24468;52.128;9.278;2023-11-18T07:20:20;101530.72;;;5.59;100.00
38718;BME280;24468;52.128;9.278;2023-11-18T07:22:45;101537.81;;;5.66;100.00
38718;BME280;24468;52.128;9.278;2023-11-18T07:25:11;101544.00;;;5.70;100.00
38718;BME280;24468;52.128;9.278;2023-11-18T07:27:36;101542.19;;;5.76;100.00
38718;BME280;24468;52.128;9.278;2023-11-18T07:30:02;101546.66;;;5.76;100.00
38718;BME280;24468;52.128;9.278;2023-11-18T07:32:31;101547.47;;;5.86;100.00
38718;BME280;24468;52.128;9.278;2023-11-18T07:34:58;101560.13;;;5.68;100.00
38718;BME280;24468;52.128;9.278;2023-11-18T07:37:23;101563.53;;;5.86;100.00
38718;BME280;24468;52.128;9.278;2023-11-18T07:39:49;101567.38;;;5.54;100.00
38718;BME280;24468;52.128;9.278;2023-11-18T07:42:14;101561.03;;;5.66;100.00
38718;BME280;24468;52.128;9.278;2023-11-18T07:44:40;101553.91;;;5.63;100.00
38718;BME280;24468;52.128;9.278;2023-11-18T07:47:06;101555.59;;;5.75;100.00
38718;BME280;24468;52.128;9.278;2023-11-18T07:49:34;101548.56;;;5.60;100.00
38718;BME280;24468;52.128;9.278;2023-11-18T07:52:03;101552.94;;;5.73;100.00
38718;BME280;24468;52.128;9.278;2023-11-18T07:54:29;101549.25;;;5.84;100.00
38718;BME280;24468;52.128;9.278;2023-11-18T07:56:55;101546.63;;;5.77;100.00
38718;BME280;24468;52.128;9.278;2023-11-18T07:59:21;101564.41;;;5.88;100.00
38718;BME280;24468;52.128;9.278;2023-11-18T08:01:47;101567.94;;;5.96;100.00
38718;BME280;24468;52.128;9.278;2023-11-18T08:04:12;101568.75;;;6.03;100.00
38718;BME280;24468;52.128;9.278;2023-11-18T08:06:42;101573.03;;;6.23;100.00
38718;BME280;24468;52.128;9.278;2023-11-18T08:09:09;101551.53;;;6.30;100.00
38718;BME280;24468;52.128;9.278;2023-11-18T08:11:38;101540.88;;;6.23;100.00
38718;BME280;24468;52.128;9.278;2023-11-18T08:14:09;101540.91;;;6.20;100.00
38718;BME280;24468;52.128;9.278;2023-11-18T08:16:34;101549.81;;;6.24;100.00
38718;BME280;24468;52.128;9.278;2023-11-18T08:19:01;101547.97;;;6.28;100.00
38718;BME280;24468;52.128;9.278;2023-11-18T08:21:28;101549.84;;;6.19;100.00
38718;BME280;24468;52.128;9.278;2023-11-18T08:23:53;101536.38;;;6.27;100.00
38718;BME280;24468;52.128;9.278;2023-11-18T08:26:19;101538.38;;;6.07;100.00
38718;BME280;24468;52.128;9.278;2023-11-18T08:28:45;101537.34;;;6.18;100.00
38718;BME280;24468;52.128;9.278;2023-11-18T08:31:13;101534.72;;;6.14;100.00
38718;BME280;24468;52.128;9.278;2023-11-18T08:33:42;101528.25;;;6.35;100.00
38718;BME280;24468;52.128;9.278;2023-11-18T08:36:08;101530.88;;;6.39;100.00
38718;BME280;24468;52.128;9.278;2023-11-18T08:38:34;101530.94;;;6.35;100.00
38718;BME280;24468;52.128;9.278;2023-11-18T08:41:00;101528.13;;;6.45;100.00
38718;BME280;24468;52.128;9.278;2023-11-18T08:43:26;101535.22;;;6.51;100.00
38718;BME280;24468;52.128;9.278;2023-11-18T08:45:54;101533.56;;;6.39;100.00
38718;BME280;24468;52.128;9.278;2023-11-18T08:48:21;101538.53;;;6.72;100.00
38718;BME280;24468;52.128;9.278;2023-11-18T08:50:48;101536.63;;;6.80;100.00
38718;BME280;24468;52.128;9.278;2023-11-18T08:53:14;101529.38;;;6.89;100.00
38718;BME280;24468;52.128;9.278;2023-11-18T08:55:44;101522.97;;;6.98;100.00
38718;BME280;24468;52.128;9.278;2023-11-18T08:58:17;101528.09;;;7.17;100.00
38718;BME280;24468;52.128;9.278;2023-11-18T09:00:52;101529.59;;;6.71;100.00
38718;BME280;24468;52.128;9.278;2023-11-18T09:03:25;101526.50;;;7.03;100.00
38718;BME280;24468;52.128;9.278;2023-11-18T09:05:58;101525.75;;;6.92;100.00
38718;BME280;24468;52.128;9.278;2023-11-18T09:08:35;101520.47;;;6.86;100.00
38718;BME280;24468;52.128;9.278;2023-11-18T09:11:05;101513.22;;;6.94;100.00
38718;BME280;24468;52.128;9.278;2023-11-18T09:13:32;101507.88;;;6.91;100.00
38718;BME280;24468;52.128;9.278;2023-11-18T09:16:04;101502.38;;;7.00;100.00
38718;BME280;24468;52.128;9.278;2023-11-18T09:18:42;101509.50;;;7.03;100.00
38718;BME280;24468;52.128;9.278;2023-11-18T09:21:11;101505.75;;;7.15;100.00
38718;BME280;24468;52.128;9.278;2023-11-18T09:23:43;101509.38;;;7.12;100.00
38718;BME280;24468;52.128;9.278;2023-11-18T09:26:10;101506.47;;;7.27;100.00
38718;BME280;24468;52.128;9.278;2023-11-18T09:28:37;101500.38;;;7.70;100.00
38718;BME280;24468;52.128;9.278;2023-11-18T09:31:04;101502.09;;;7.74;100.00
38718;BME280;24468;52.128;9.278;2023-11-18T09:33:32;101502.78;;;7.87;100.00
38718;BME280;24468;52.128;9.278;2023-11-18T09:36:00;101494.88;;;7.79;100.00
38718;BME280;24468;52.128;9.278;2023-11-18T09:38:30;101499.94;;;7.95;100.00
38718;BME280;24468;52.128;9.278;2023-11-18T09:40:58;101497.13;;;8.02;100.00
38718;BME280;24468;52.128;9.278;2023-11-18T09:43:31;101501.44;;;8.11;100.00
38718;BME280;24468;52.128;9.278;2023-11-18T09:46:14;101512.84;;;8.24;100.00
38718;BME280;24468;52.128;9.278;2023-11-18T09:48:45;101511.16;;;8.18;100.00
38718;BME280;24468;52.128;9.278;2023-11-18T09:51:20;101492.84;;;8.40;100.00
38718;BME280;24468;52.128;9.278;2023-11-18T09:53:53;101486.19;;;8.58;100.00
38718;BME280;24468;52.128;9.278;2023-11-18T09:59:58;101474.44;;;8.64;100.00
38718;BME280;24468;52.128;9.278;2023-11-18T10:02:39;101452.78;;;8.68;100.00
38718;BME280;24468;52.128;9.278;2023-11-18T10:05:07;101440.44;;;8.58;100.00
38718;BME280;24468;52.128;9.278;2023-11-18T10:07:42;101434.91;;;8.66;100.00
38718;BME280;24468;52.128;9.278;2023-11-18T10:10:11;101428.25;;;8.82;100.00
38718;BME280;24468;52.128;9.278;2023-11-18T10:12:47;101436.63;;;8.70;100.00
38718;BME280;24468;52.128;9.278;2023-11-18T10:15:23;101434.66;;;8.78;100.00
38718;BME280;24468;52.128;9.278;2023-11-18T10:17:51;101429.66;;;9.00;100.00
38718;BME280;24468;52.128;9.278;2023-11-18T10:20:51;101436.47;;;8.76;100.00
38718;BME280;24468;52.128;9.278;2023-11-18T10:23:18;101440.75;;;8.86;100.00
38718;BME280;24468;52.128;9.278;2023-11-18T10:25:52;101426.19;;;8.95;100.00
38718;BME280;24468;52.128;9.278;2023-11-18T10:28:25;101443.63;;;8.77;100.00
38718;BME280;24468;52.128;9.278;2023-11-18T10:30:56;101428.91;;;8.94;100.00
38718;BME280;24468;52.128;9.278;2023-11-18T10:33:39;101433.47;;;8.92;100.00
38718;BME280;24468;52.128;9.278;2023-11-18T10:36:21;101420.38;;;9.13;100.00
38718;BME280;24468;52.128;9.278;2023-11-18T10:38:52;101414.78;;;9.21;100.00
38718;BME280;24468;52.128;9.278;2023-11-18T10:41:21;101407.88;;;9.11;100.00
38718;BME280;24468;52.128;9.278;2023-11-18T10:43:47;101405.91;;;9.18;100.00
38718;BME280;24468;52.128;9.278;2023-11-18T10:46:16;101400.25;;;9.28;100.00
38718;BME280;24468;52.128;9.278;2023-11-18T10:48:47;101407.59;;;9.22;100.00
38718;BME280;24468;52.128;9.278;2023-11-18T10:51:15;101406.47;;;8.95;100.00
38718;BME280;24468;52.128;9.278;2023-11-18T10:53:47;101411.63;;;9.04;100.00
38718;BME280;24468;52.128;9.278;2023-11-18T10:56:24;101407.50;;;8.89;100.00
38718;BME280;24468;52.128;9.278;2023-11-18T10:59:18;101394.16;;;9.20;100.00
38718;BME280;24468;52.128;9.278;2023-11-18T11:01:45;101400.00;;;9.38;100.00
38718;BME280;24468;52.128;9.278;2023-11-18T11:04:15;101385.03;;;9.27;100.00
38718;BME280;24468;52.128;9.278;2023-11-18T11:06:47;101373.47;;;9.22;100.00
38718;BME280;24468;52.128;9.278;2023-11-18T11:09:24;101367.47;;;9.45;100.00
38718;BME280;24468;52.128;9.278;2023-11-18T11:12:10;101352.56;;;9.32;100.00
38718;BME280;24468;52.128;9.278;2023-11-18T11:14:57;101348.69;;;9.44;100.00
38718;BME280;24468;52.128;9.278;2023-11-18T11:17:27;101347.25;;;9.63;100.00
38718;BME280;24468;52.128;9.278;2023-11-18T11:20:05;101341.13;;;9.56;100.00
38718;BME280;24468;52.128;9.278;2023-11-18T11:23:20;101337.25;;;9.35;100.00
38718;BME280;24468;52.128;9.278;2023-11-18T11:26:06;101343.63;;;9.31;100.00
38718;BME280;24468;52.128;9.278;2023-11-18T11:29:02;101347.25;;;9.30;100.00
38718;BME280;24468;52.128;9.278;2023-11-18T11:31:38;101329.56;;;9.86;100.00
38718;BME280;24468;52.128;9.278;2023-11-18T11:34:09;101330.56;;;9.82;100.00
38718;BME280;24468;52.128;9.278;2023-11-18T11:36:47;101336.47;;;9.94;100.00
38718;BME280;24468;52.128;9.278;2023-11-18T11:39:17;101328.19;;;10.02;100.00
38718;BME280;24468;52.128;9.278;2023-11-18T11:41:50;101327.44;;;9.97;100.00
38718;BME280;24468;52.128;9.278;2023-11-18T11:44:17;101317.03;;;9.83;100.00
38718;BME280;24468;52.128;9.278;2023-11-18T11:46:48;101309.66;;;9.90;100.00
38718;BME280;24468;52.128;9.278;2023-11-18T11:49:20;101304.59;;;9.79;100.00
38718;BME280;24468;52.128;9.278;2023-11-18T11:51:50;101305.19;;;9.89;100.00
38718;BME280;24468;52.128;9.278;2023-11-18T11:54:28;101295.69;;;9.75;100.00
38718;BME280;24468;52.128;9.278;2023-11-18T11:56:59;101273.38;;;9.72;100.00
38718;BME280;24468;52.128;9.278;2023-11-18T12:02:25;101283.13;;;9.43;100.00
38718;BME280;24468;52.128;9.278;2023-11-18T12:04:55;101283.69;;;9.56;100.00
38718;BME280;24468;52.128;9.278;2023-11-18T12:07:25;101294.06;;;9.70;100.00
38718;BME280;24468;52.128;9.278;2023-11-18T12:09:59;101299.56;;;9.34;100.00
38718;BME280;24468;52.128;9.278;2023-11-18T12:12:27;101290.50;;;9.69;100.00
38718;BME280;24468;52.128;9.278;2023-11-18T12:14:58;101288.69;;;9.39;100.00
38718;BME280;24468;52.128;9.278;2023-11-18T12:20:44;101281.94;;;9.55;100.00
38718;BME280;24468;52.128;9.278;2023-11-18T12:23:14;101279.47;;;9.13;100.00
38718;BME280;24468;52.128;9.278;2023-11-18T12:25:41;101279.44;;;9.47;100.00
38718;BME280;24468;52.128;9.278;2023-11-18T12:28:08;101286.41;;;8.89;100.00
38718;BME280;24468;52.128;9.278;2023-11-18T12:33:05;101280.16;;;9.21;100.00
38718;BME280;24468;52.128;9.278;2023-11-18T12:39:02;101276.44;;;8.93;100.00
38718;BME280;24468;52.128;9.278;2023-11-18T12:41:40;101270.56;;;8.77;100.00
38718;BME280;24468;52.128;9.278;2023-11-18T12:44:25;101269.09;;;8.63;100.00
38718;BME280;24468;52.128;9.278;2023-11-18T12:47:01;101269.16;;;8.21;100.00
38718;BME280;24468;52.128;9.278;2023-11-18T12:49:47;101271.75;;;8.26;100.00
38718;BME280;24468;52.128;9.278;2023-11-18T12:52:21;101263.53;;;7.93;100.00
38718;BME280;24468;52.128;9.278;2023-11-18T12:54:48;101255.09;;;8.10;100.00
38718;BME280;24468;52.128;9.278;2023-11-18T12:57:27;101249.66;;;8.13;100.00
38718;BME280;24468;52.128;9.278;2023-11-18T12:59:57;101242.75;;;8.01;100.00
38718;BME280;24468;52.128;9.278;2023-11-18T13:02:22;101249.47;;;7.82;100.00
38718;BME280;24468;52.128;9.278;2023-11-18T13:04:49;101244.75;;;7.92;100.00
38718;BME280;24468;52.128;9.278;2023-11-18T13:07:19;101243.50;;;8.08;100.00
38718;BME280;24468;52.128;9.278;2023-11-18T13:09:47;101240.03;;;8.03;100.00
38718;BME280;24468;52.128;9.278;2023-11-18T13:12:14;101233.56;;;8.12;100.00
38718;BME280;24468;52.128;9.278;2023-11-18T13:14:42;101236.63;;;7.95;100.00